Farmington, WA (99104)

3:24 PM PDT on July 30, 2016 (GMT -0700)
APRSWXNET | | Change Station
Active Advisory: Fire Weather Warning

Elev 2732 ft 47.02 °N, 117.15 °W | Updated 39 minutes ago

Clear
Clear
87 °F
Feels Like 84 °F
N
4
Wind Variable Wind from WNW
Gusts 0.0 mph

Today
High -- | Low -- °F
--% Chance of Precip.
Yesterday
High -- | Low -- °F
Precip. -- in
Pressure 29.77 in
Visibility 10.0 miles
Clouds Clear
Heat Index 84 °F
Dew Point 49 °F
Humidity 27%
Rainfall in
Snow Depth Not available.
5:25 AM 8:22 PM
Waning Crescent, 10% visible
METAR KPUW 302153Z AUTO 26011G20KT 10SM CLR 32/07 A2982 RMK AO2 SLP079 T03170072
Pressure 29.77 in
Visibility 10.0 miles
Clouds Clear
Heat Index 84 °F
Dew Point 49 °F
Humidity 27%
Rainfall in
Snow Depth Not available.
5:25 AM 8:22 PM
Waning Crescent, 10% visible
METAR KPUW 302153Z AUTO 26011G20KT 10SM CLR 32/07 A2982 RMK AO2 SLP079 T03170072

10-Day Weather Forecast

Almanac

Astronomy

Jul. 30, 2016 Rise Set
Actual Time
Civil Twilight
Nautical Twilight
Astronomical Twilight
Moon
Length of Visible Light
Length of Day
Tomorrow will be .
, % of the Moon is Illuminated

Today's Extremes

State Highs State Lows

Community

WunderPhotos

Upload Photos

1,928,663 photos uploaded!

WunderBlog® & News

Nearby

Air Quality

  Air Quality AQ Index Pollutant
Not available.

Snow Depth

Station Depth Elevation

Earthquake Activity

City Distance Mag. Time & Date
Minimum magnitude displayed is 2.5.

Coastal Water Temperatures

Place Temperature

Stations

Nearby Weather Stations

Station Location Temp. Windchill Dew Point Humidity Wind Precip. Elev Updated Type
                   

Watches & Warnings

Fire Weather Warning
Issued: 12:19 PM PDT Jul. 30, 2016 – National Weather Service

... Red flag warning remains in effect until 9 PM PDT this evening
for wind and low relative humidity south central Cascade
valleys... the central Cascade valleys... the northern Columbia
Basin... the Palouse and Spokane area...

* affected area: fire weather zone 673 East Washington northern
Columbia Basin (zone 673)... fire weather zone 674 East
Washington Palouse and Spokane area (zone 674)... fire weather
zone 676 East Washington south central Cascade valleys (zone
676) and fire weather zone 677 East Washington central Cascade
valleys (zone 677).

* Winds: west 15 to 28 mph with gusts up to 30 mph.

* Relative humidities: 11 to 22 percent.

* Impacts: dry and breezy conditions will lead to the rapid
spread of any new fire starts.

* Communities: Wenatchee... Entiat... Vantage... George... Ephrata...
   Moses Lake... Douglas... Waterville... Wilbur... Othello...
Ritzville... Coulee City... Ellensburg... Yakima.

Precautionary/preparedness actions...

A red flag warning means that critical fire weather conditions
are either occurring now... .or will shortly. A combination of
strong winds... low relative humidity... and warm temperatures can
contribute to extreme fire behavior.